createdAt,value
2022-11-20T00:00:19.022Z,99428.72
2022-11-20T00:05:21.887Z,99428.72
2022-11-20T00:10:23.543Z,99435.09
2022-11-20T00:15:25.800Z,99427.53
2022-11-20T00:20:27.460Z,99433.41
2022-11-20T00:25:29.117Z,99422.16
2022-11-20T00:30:30.776Z,99430.16
2022-11-20T00:35:32.461Z,99433.94
2022-11-20T00:40:34.120Z,99436.88
2022-11-20T00:45:35.772Z,99431.34
2022-11-20T00:50:37.506Z,99448.41
2022-11-20T00:55:39.249Z,99447.34
2022-11-20T01:00:40.986Z,99447.47
2022-11-20T01:05:42.709Z,99443.25
2022-11-20T01:10:44.373Z,99442.44
2022-11-20T01:15:46.020Z,99451.72
2022-11-20T01:20:48.211Z,99448.91
2022-11-20T01:25:49.865Z,99453.22
2022-11-20T01:30:51.780Z,99446.72
2022-11-20T01:35:54.017Z,99438.72
2022-11-20T01:40:56.804Z,99430.56
2022-11-20T01:46:14.184Z,99432.06
2022-11-20T01:51:39.130Z,99423.22
2022-11-20T01:56:43.880Z,99416.22
2022-11-20T02:01:45.657Z,99425.41
2022-11-20T02:06:52.985Z,99427.03
2022-11-20T02:11:55.923Z,99416.41
2022-11-20T02:16:57.635Z,99410.13
2022-11-20T02:22:14.932Z,99409.22
2022-11-20T02:27:17.997Z,99397.19
2022-11-20T02:32:33.762Z,99399.13
2022-11-20T02:37:38.246Z,99405.47
2022-11-20T02:42:39.927Z,99394.69
2022-11-20T02:47:41.581Z,99395.88
2022-11-20T02:52:43.449Z,99402.41
2022-11-20T02:57:45.143Z,99397.13
2022-11-20T03:02:47.176Z,99394.09
2022-11-20T03:07:48.834Z,99398.88
2022-11-20T03:12:56.297Z,99390.78
2022-11-20T03:17:57.994Z,99390.19
2022-11-20T03:22:59.731Z,99382.34
2022-11-20T03:28:01.410Z,99389.34
2022-11-20T03:33:03.159Z,99389.19
2022-11-20T03:38:04.818Z,99390.28
2022-11-20T03:43:06.484Z,99400.19
2022-11-20T03:48:08.151Z,99390.13
2022-11-20T03:53:09.807Z,99387.22
2022-11-20T03:58:11.611Z,99387.28
2022-11-20T04:03:13.285Z,99382.72
2022-11-20T04:08:14.971Z,99376.09
2022-11-20T04:13:16.627Z,99377.50
2022-11-20T04:18:18.300Z,99375.38
2022-11-20T04:23:22.386Z,99364.66
2022-11-20T04:28:27.508Z,99360.44
2022-11-20T04:33:33.887Z,99365.00
2022-11-20T04:38:36.052Z,99354.84
2022-11-20T04:43:37.732Z,99346.59
2022-11-20T04:48:39.404Z,99343.50
2022-11-20T04:53:41.443Z,99339.63
2022-11-20T04:58:43.246Z,99356.28
2022-11-20T05:03:45.777Z,99351.41
2022-11-20T05:08:47.507Z,99364.31
2022-11-20T05:13:50.912Z,99364.25
2022-11-20T05:18:54.324Z,99358.38
2022-11-20T05:23:55.976Z,99356.50
2022-11-20T05:28:57.843Z,99364.44
2022-11-20T05:33:59.543Z,99353.03
2022-11-20T05:39:01.901Z,99354.22
2022-11-20T05:44:04.207Z,99358.38
2022-11-20T05:49:05.884Z,99343.44
2022-11-20T05:54:07.578Z,99344.06
2022-11-20T05:59:09.311Z,99343.66
2022-11-20T06:04:10.996Z,99351.25
2022-11-20T06:09:12.692Z,99337.84
2022-11-20T06:14:14.347Z,99334.13
2022-11-20T06:19:16.280Z,99333.47
2022-11-20T06:24:18.755Z,99336.38
2022-11-20T06:29:20.798Z,99324.22
2022-11-20T06:34:22.655Z,99325.59
2022-11-20T06:39:24.550Z,99324.22
2022-11-20T06:44:26.861Z,99320.56
2022-11-20T06:49:28.554Z,99318.78
2022-11-20T06:54:30.213Z,99327.34
2022-11-20T06:59:31.870Z,99319.13
2022-11-20T07:04:33.535Z,99316.16
2022-11-20T07:09:35.213Z,99315.72
2022-11-20T07:14:36.902Z,99326.34
2022-11-20T07:19:38.583Z,99317.66
2022-11-20T07:24:45.700Z,99318.50
2022-11-20T07:29:47.727Z,99316.94
2022-11-20T07:34:49.454Z,99317.00
2022-11-20T07:39:51.111Z,99307.75
2022-11-20T07:44:52.759Z,99303.09
2022-11-20T07:49:54.497Z,99303.47
2022-11-20T07:54:56.180Z,99303.38
2022-11-20T07:59:57.873Z,99306.13
2022-11-20T08:04:59.533Z,99295.81
2022-11-20T08:10:01.189Z,99296.34
2022-11-20T08:15:05.239Z,99296.66
2022-11-20T08:20:09.579Z,99292.34
2022-11-20T08:25:11.257Z,99296.16
2022-11-20T08:30:13.584Z,99292.66
2022-11-20T08:35:15.261Z,99285.22
2022-11-20T08:40:19.567Z,99286.59
2022-11-20T08:45:21.635Z,99281.53
2022-11-20T08:50:23.382Z,99265.84
2022-11-20T08:55:25.165Z,99258.56
2022-11-20T09:00:27.140Z,99251.44
2022-11-20T09:05:28.883Z,99240.50
2022-11-20T09:10:30.572Z,99232.34
2022-11-20T09:15:32.716Z,99231.50
2022-11-20T09:20:34.562Z,99231.53
2022-11-20T09:25:36.247Z,99223.34
2022-11-20T09:30:38.026Z,99228.88
2022-11-20T09:35:39.792Z,99238.56
2022-11-20T09:41:05.508Z,99239.13
2022-11-20T09:46:10.303Z,99234.47
2022-11-20T09:51:23.152Z,99222.53
2022-11-20T09:56:26.458Z,99233.03
2022-11-20T10:01:32.772Z,99223.97
2022-11-20T10:07:31.499Z,99218.81
2022-11-20T10:12:43.015Z,99206.84
2022-11-20T10:17:56.726Z,99199.78
2022-11-20T10:23:53.875Z,99187.28
2022-11-20T10:29:12.774Z,99178.69
2022-11-20T10:34:33.198Z,99178.75
2022-11-20T10:39:50.565Z,99184.13
2022-11-20T10:45:05.817Z,99192.88
2022-11-20T10:50:21.886Z,99194.50
2022-11-20T10:55:40.148Z,99188.78
2022-11-20T11:00:41.995Z,99181.06
2022-11-20T11:06:05.024Z,99177.94
2022-11-20T11:11:28.978Z,99179.53
2022-11-20T11:16:30.656Z,99167.06
2022-11-20T11:21:32.372Z,99163.88
2022-11-20T11:26:34.087Z,99161.91
2022-11-20T11:31:36.371Z,99147.66
2022-11-20T11:36:38.623Z,99154.84
2022-11-20T11:41:40.979Z,99143.47
2022-11-20T11:46:53.747Z,99126.69
2022-11-20T11:52:17.947Z,99121.63
2022-11-20T11:57:38.096Z,99110.53
2022-11-20T12:02:45.579Z,99116.75
2022-11-20T12:08:18.059Z,99116.91
2022-11-20T12:13:35.046Z,99111.53
2022-11-20T12:18:36.735Z,99093.44
2022-11-20T12:23:57.685Z,99088.56
2022-11-20T12:29:34.432Z,99097.25
2022-11-20T12:35:00.292Z,99108.13
2022-11-20T12:40:15.920Z,99104.31
2022-11-20T12:45:46.857Z,99100.22
2022-11-20T12:51:16.432Z,99101.03
2022-11-20T12:56:33.484Z,99093.28
2022-11-20T13:02:16.132Z,99083.22
2022-11-20T13:07:19.028Z,99083.00
2022-11-20T13:12:33.889Z,99080.41
2022-11-20T13:17:38.217Z,99075.13
2022-11-20T13:22:48.423Z,99077.09
2022-11-20T13:27:50.473Z,99077.47
2022-11-20T13:32:58.450Z,99069.88
2022-11-20T13:38:13.554Z,99070.78
2022-11-20T13:43:39.799Z,99061.81
2022-11-20T13:48:44.596Z,99056.31
2022-11-20T13:54:07.309Z,99060.69
2022-11-20T13:59:27.927Z,99069.09
2022-11-20T14:04:39.225Z,99064.81
2022-11-20T14:09:51.220Z,99075.75
2022-11-20T14:14:55.480Z,99069.09
2022-11-20T14:20:05.448Z,99072.25
2022-11-20T14:25:13.161Z,99059.16
2022-11-20T14:30:20.578Z,99063.66
2022-11-20T14:35:26.585Z,99079.06
2022-11-20T14:40:32.398Z,99073.47
2022-11-20T14:45:34.337Z,99069.84
2022-11-20T14:50:36.528Z,99058.66
2022-11-20T14:55:39.400Z,99054.97
2022-11-20T15:00:41.144Z,99047.50
2022-11-20T15:05:48.600Z,99052.69
2022-11-20T15:10:52.184Z,99053.09
2022-11-20T15:15:56.576Z,99050.94
2022-11-20T15:21:02.233Z,99046.91
2022-11-20T15:26:06.794Z,99039.22
2022-11-20T15:31:12.887Z,99043.09
2022-11-20T15:36:15.189Z,99042.03
2022-11-20T15:41:16.927Z,99052.97
2022-11-20T15:46:27.457Z,99047.44
2022-11-20T15:51:32.876Z,99033.41
2022-11-20T15:56:34.572Z,99038.69
2022-11-20T16:01:36.708Z,99037.78
2022-11-20T16:06:40.142Z,99030.31
2022-11-20T16:11:41.803Z,99036.69
2022-11-20T16:16:44.435Z,99039.44
2022-11-20T16:21:46.295Z,99039.09
2022-11-20T16:26:48.004Z,99056.63
2022-11-20T16:31:49.756Z,99048.44
2022-11-20T16:36:51.414Z,99048.69
2022-11-20T16:41:53.075Z,99054.41
2022-11-20T16:46:55.204Z,99062.13
2022-11-20T16:51:56.864Z,99065.50
2022-11-20T16:56:58.523Z,99062.38
2022-11-20T17:02:00.206Z,99050.94
2022-11-20T17:07:07.861Z,99057.69
2022-11-20T17:12:10.189Z,99060.97
2022-11-20T17:17:11.928Z,99062.50
2022-11-20T17:22:13.583Z,99060.44
2022-11-20T17:27:15.272Z,99058.66
2022-11-20T17:32:16.959Z,99066.13
2022-11-20T17:37:18.627Z,99050.59
2022-11-20T17:42:29.851Z,99053.56
2022-11-20T17:47:31.659Z,99061.66
2022-11-20T17:52:33.309Z,99046.84
2022-11-20T17:57:53.092Z,99042.81
2022-11-20T18:02:55.569Z,99045.50
2022-11-20T18:07:57.286Z,99035.91
2022-11-20T18:12:59.010Z,99026.47
2022-11-20T18:18:00.659Z,99023.59
2022-11-20T18:23:02.344Z,99026.84
2022-11-20T18:28:04.033Z,99023.63
2022-11-20T18:33:05.802Z,99028.44
2022-11-20T18:38:07.491Z,99029.19
2022-11-20T18:43:29.621Z,99022.97
2022-11-20T18:48:32.191Z,99018.44
2022-11-20T18:53:36.702Z,99007.94
2022-11-20T18:58:39.355Z,99010.25
2022-11-20T19:03:41.027Z,99001.72
2022-11-20T19:08:43.282Z,99000.25
2022-11-20T19:13:45.558Z,99005.41
2022-11-20T19:18:48.466Z,98997.31
2022-11-20T19:23:52.266Z,99004.44
2022-11-20T19:28:54.360Z,98992.38
2022-11-20T19:33:58.091Z,98986.69
2022-11-20T19:39:00.829Z,98977.03
2022-11-20T19:44:05.009Z,98981.13
2022-11-20T19:49:10.272Z,98977.31
2022-11-20T19:54:12.069Z,98975.13
2022-11-20T19:59:14.582Z,98975.88
2022-11-20T20:04:16.297Z,98967.78
2022-11-20T20:09:17.946Z,98973.25
2022-11-20T20:14:20.090Z,98964.31
2022-11-20T20:19:22.203Z,98955.56
2022-11-20T20:24:24.147Z,98934.13
2022-11-20T20:29:26.106Z,98936.25
2022-11-20T20:34:32.103Z,98934.66
2022-11-20T20:39:33.826Z,98941.25
2022-11-20T20:45:13.855Z,98930.63
2022-11-20T20:50:15.743Z,98919.59
2022-11-20T20:55:17.535Z,98926.50
2022-11-20T21:00:19.468Z,98914.41
2022-11-20T21:05:21.112Z,98909.63
2022-11-20T21:10:23.979Z,98907.44
2022-11-20T21:15:26.005Z,98895.94
2022-11-20T21:20:46.303Z,98875.22
2022-11-20T21:25:48.009Z,98870.50
2022-11-20T21:30:49.728Z,98842.69
2022-11-20T21:35:51.391Z,98838.97
2022-11-20T21:40:53.037Z,98830.00
2022-11-20T21:46:00.941Z,98823.41
2022-11-20T21:51:11.250Z,98821.38
2022-11-20T21:56:18.968Z,98809.16
2022-11-20T22:01:27.087Z,98801.38
2022-11-20T22:06:33.963Z,98803.16
2022-11-20T22:11:35.651Z,98795.00
2022-11-20T22:16:38.106Z,98781.25
2022-11-20T22:21:40.597Z,98778.84
2022-11-20T22:26:42.548Z,98775.09
2022-11-20T22:31:44.625Z,98762.25
2022-11-20T22:36:46.332Z,98749.41
2022-11-20T22:41:48.004Z,98748.72
2022-11-20T22:46:49.659Z,98749.41
2022-11-20T22:51:51.348Z,98747.78
2022-11-20T22:56:53.050Z,98732.75
2022-11-20T23:01:54.703Z,98726.53
2022-11-20T23:06:56.577Z,98721.34
2022-11-20T23:11:58.236Z,98718.81
2022-11-20T23:17:00.016Z,98708.69
2022-11-20T23:22:01.705Z,98694.03
2022-11-20T23:27:03.408Z,98685.41
2022-11-20T23:32:05.098Z,98676.41
2022-11-20T23:37:06.802Z,98675.19
2022-11-20T23:42:08.503Z,98671.69
2022-11-20T23:47:10.160Z,98665.91
2022-11-20T23:52:11.881Z,98656.13
2022-11-20T23:57:13.552Z,98640.09
